Wenecja, Włochy

04:01 CEST dnia 03-wrzesień-2014 (GMT +0200)
Venezia | Change Station
CLOSE
Current Station
Stacja PWS
Location: Dese, Venezia
n.p.m.: 14 ft
Najbliższa stacja pogodowa

Wysokość 14 ft 45.53 °N, 12.31 °E | Updated 3 minutes ago

Light Rain
lekki deszcz
61.3 ° F
Odczuwalna 61.3 ° F
Płn.
0.0
Wiatr zmienny Wiatr od zachodni
Gusts 0.0 mph

Dziś
Wysoka -- | Niska -- ° F
--% Prawdop. opadów
Wczoraj
Wysoka -- | Niska -- ° F
Precip. -- cali
6:34 AM 7:45 PM
Pierwsza kwadra, 57% visible
Ciśnienie 29.89 cali
Widzialność 6.2 mil
chmury obłoki zanikające 3000 ft
przewaga chmur 5000 ft
Punkt rosy 57 ° F
Wilgotność 87%
Opady deszczu 0.06 cali
grubość pokrywy śnieżnej Niedostępne.
UV 0 z 12
Pyłki Niedostępne.
Jakość powietrza Niedostępne.
Flu Activity Niedostępne.
METAR LIPZ 030150Z 30004KT 9999 -RA SCT030 BKN050 16/14 Q1012

More Conditions Fewer Conditions

Ciśnienie 29.89 cali
Widzialność 6.2 mil
chmury obłoki zanikające 3000 ft
przewaga chmur 5000 ft
Punkt rosy 57 ° F
Wilgotność 87%
Opady deszczu 0.06 cali
grubość pokrywy śnieżnej Niedostępne.
UV 0 z 12
Pyłki Niedostępne.
Jakość powietrza Niedostępne.
Flu Activity Niedostępne.
METAR LIPZ 030150Z 30004KT 9999 -RA SCT030 BKN050 16/14 Q1012

More Conditions Fewer Conditions

10-Day Weather Forecast

Almanac

Astronomia

Sep. 03, 2014 Wschód Zachów
Aktualny czas 06:34 CEST 19:45 CEST
Zmierzch cywilny 06:03 CEST 20:15 CEST
Zmierzch żeglarski 05:27 CEST 20:52 CEST
świt/zmierzch astronomiczny 04:48 CEST 21:30 CEST
Księżyc 15:20 CEST 00:04 CEST
całkowite oświetlenie 14h 11m
Długość dnia
13h 10m
Tomorrow will be 3m 5s shorter.
Pierwsza kwadra, 57% of the Moon is Illuminated
Wrzesień 2
Pierwsza kwadra
Wrzesień 8
Pełnia Księżyca
Wrzesień 15
Ostatnia kwadra
Wrzesień 24
Nowy
Październik 1
Pierwsza kwadra

Wczorajsze ekstrema

Country Highs Country Lows

Community

WunderPhotos

Upload Photos

1,749,837 zdjęcia zostały przesłane!

Nearby

Jakość powietrza

Not available.

Głębokość pokrywy śnieżnej

Not available.

Aktywność sejsmiczna

Miejscowość Distance Mag. Time & Date
No recent earthquake activity has been reported nearby.
Minimum magnitude displayed is 2.5.

Temperatury wody na wybrzeżu

Miejsce Temperatura
Nie znaleziono stacji

Najbliższa stacja pogodowa